Time;durP1;ratioP1;P1;durP2;ratioP2;P2;SDS_P1;SDS_P2;PMS_P1;PMS_P2;Temp;Humidity;BMP_temperature;BMP_pressure;BME280_temperature;BME280_humidity;BME280_pressure;Samples;Min_cycle;Max_cycle;Signal;HPM_P1;HPM_P2
2022/07/05 00:02:09;;;;;;;5.07;1.62;;;;;;;28.26;43.33;99786.53;4397235;32;32947;-85
2022/07/05 00:04:37;;;;;;;1.87;1.52;;;;;;;28.54;42.81;99787.69;4396239;32;33742;-85
2022/07/05 00:07:17;;;;;;;5.22;1.48;;;;;;;28.17;43.62;99783.00;4412470;32;33915;-85
2022/07/05 00:09:47;;;;;;;2.20;1.60;;;;;;;28.25;43.60;99787.56;4384872;32;109724;-86
2022/07/05 00:12:15;;;;;;;3.92;1.30;;;;;;;27.91;44.63;99787.94;4399515;32;33064;-86
2022/07/05 00:14:49;;;;;;;1.42;1.05;;;;;;;27.62;45.26;99788.56;4418861;32;33981;-85
2022/07/05 00:17:17;;;;;;;5.05;1.73;;;;;;;27.91;44.70;99779.78;4399552;32;34442;-85
2022/07/05 00:19:46;;;;;;;1.83;1.15;;;;;;;27.69;45.10;99776.00;4398444;32;34068;-85
2022/07/05 00:22:14;;;;;;;2.47;1.02;;;;;;;27.77;45.09;99763.28;4399853;32;33611;-85
2022/07/05 00:24:42;;;;;;;2.05;1.20;;;;;;;27.98;44.41;99759.06;4411435;32;33640;-85
2022/07/05 00:27:10;;;;;;;3.58;1.40;;;;;;;27.87;44.80;99751.31;4382146;32;33974;-85
2022/07/05 00:29:39;;;;;;;2.28;1.17;;;;;;;27.61;45.19;99752.47;4388413;32;32311;-85
2022/07/05 00:32:08;;;;;;;1.58;1.00;;;;;;;27.61;45.26;99741.63;4394640;32;33250;-84
2022/07/05 00:34:36;;;;;;;2.33;1.00;;;;;;;27.57;45.16;99738.41;4410425;32;33571;-84
2022/07/05 00:37:05;;;;;;;4.60;0.85;;;;;;;27.55;45.08;99731.50;4411237;32;34240;-84
2022/07/05 00:39:34;;;;;;;2.05;1.30;;;;;;;27.87;44.23;99732.31;4406165;32;32478;-86
2022/07/05 00:42:02;;;;;;;1.77;1.20;;;;;;;27.78;44.45;99737.84;4382167;32;34184;-86
2022/07/05 00:44:37;;;;;;;1.77;1.45;;;;;;;27.72;44.58;99743.97;4405904;32;34242;-86
2022/07/05 00:47:06;;;;;;;2.42;1.35;;;;;;;27.62;44.97;99742.47;4393383;32;32130;-85
2022/07/05 00:49:34;;;;;;;2.35;1.20;;;;;;;27.48;45.13;99744.06;4409385;32;33088;-85
2022/07/05 00:52:04;;;;;;;1.73;1.00;;;;;;;27.47;44.78;99726.94;4406357;32;32801;-85
2022/07/05 00:54:48;;;;;;;5.20;1.25;;;;;;;27.75;44.13;99732.75;4378303;32;33546;-85
2022/07/05 00:57:19;;;;;;;2.03;1.17;;;;;;;27.62;44.54;99737.88;4399565;32;34021;-85
2022/07/05 00:59:49;;;;;;;3.50;1.40;;;;;;;27.69;44.41;99749.72;4399758;32;33588;-85
2022/07/05 01:02:19;;;;;;;1.40;1.30;;;;;;;27.84;43.63;99743.56;4392379;32;33309;-85
2022/07/05 01:04:49;;;;;;;1.73;1.50;;;;;;;27.56;44.10;99744.03;4402526;32;33579;-85
2022/07/05 01:07:19;;;;;;;2.15;1.10;;;;;;;27.48;44.31;99738.62;4390038;32;34165;-85
2022/07/05 01:09:47;;;;;;;2.78;1.15;;;;;;;27.68;43.35;99739.03;4395658;32;33798;-85
2022/07/05 01:12:17;;;;;;;3.45;1.15;;;;;;;27.60;43.23;99734.50;4371986;32;32666;-85
2022/07/05 01:14:45;;;;;;;2.95;1.10;;;;;;;27.56;43.32;99738.59;4395096;32;34640;-85
2022/07/05 01:17:15;;;;;;;1.50;1.00;;;;;;;27.55;43.13;99742.34;4394186;32;34513;-86
2022/07/05 01:19:44;;;;;;;1.33;1.15;;;;;;;27.43;42.97;99739.16;4408021;32;33655;-85
2022/07/05 01:22:17;;;;;;;1.27;1.17;;;;;;;27.55;43.01;99742.34;4398434;32;33914;-84
2022/07/05 01:24:47;;;;;;;1.10;1.00;;;;;;;27.53;43.27;99739.78;4397488;32;33251;-84
2022/07/05 01:27:17;;;;;;;1.27;1.10;;;;;;;27.55;42.99;99737.75;4402384;32;32881;-84
2022/07/05 01:29:45;;;;;;;1.17;1.08;;;;;;;27.56;42.94;99727.75;4411637;32;32299;-85
2022/07/05 01:32:14;;;;;;;1.40;1.10;;;;;;;27.29;43.40;99729.91;4401591;32;33156;-84
2022/07/05 01:34:42;;;;;;;1.00;0.95;;;;;;;27.14;43.64;99726.25;4411233;32;33642;-85
2022/07/05 01:37:11;;;;;;;2.65;1.23;;;;;;;27.26;42.98;99724.03;4392924;32;33542;-85
2022/07/05 01:39:40;;;;;;;0.80;0.80;;;;;;;27.11;43.68;99734.75;4403940;32;32600;-84
2022/07/05 01:42:08;;;;;;;1.85;1.05;;;;;;;27.13;43.65;99731.88;4400894;32;33526;-85
2022/07/05 01:44:38;;;;;;;1.50;1.00;;;;;;;27.06;43.09;99732.53;4412747;32;34926;-85
2022/07/05 01:47:08;;;;;;;1.25;1.10;;;;;;;27.08;43.16;99732.38;4403797;32;33990;-85
2022/07/05 01:49:41;;;;;;;1.10;1.00;;;;;;;27.17;42.96;99734.06;4397999;32;32582;-85
2022/07/05 01:52:11;;;;;;;2.35;1.17;;;;;;;27.24;42.79;99724.19;4387669;32;33752;-85
2022/07/05 01:54:40;;;;;;;1.17;0.82;;;;;;;27.21;43.12;99724.56;4387962;32;31918;-85
2022/07/05 01:57:09;;;;;;;1.25;0.98;;;;;;;27.14;42.69;99723.53;4414109;32;32670;-87
2022/07/05 01:59:38;;;;;;;1.20;0.85;;;;;;;26.99;43.94;99731.53;4394935;32;32587;-86
2022/07/05 02:02:08;;;;;;;1.20;1.00;;;;;;;27.21;42.92;99737.25;4382937;32;33702;-85
2022/07/05 02:04:36;;;;;;;1.90;0.95;;;;;;;27.00;43.48;99738.62;4401062;32;34011;-86
2022/07/05 02:07:06;;;;;;;5.35;1.52;;;;;;;27.02;43.12;99735.78;4399952;32;33850;-85
2022/07/05 02:09:36;;;;;;;1.27;1.05;;;;;;;27.15;42.67;99738.78;4397433;32;32717;-85
2022/07/05 02:12:05;;;;;;;1.02;0.93;;;;;;;26.90;43.15;99735.28;4399578;32;34593;-85
2022/07/05 02:14:33;;;;;;;3.97;1.10;;;;;;;26.85;43.01;99734.97;4375085;32;34096;-84
2022/07/05 02:17:02;;;;;;;1.77;1.10;;;;;;;27.22;42.17;99730.81;4413678;32;34715;-85
2022/07/05 02:19:31;;;;;;;1.08;0.85;;;;;;;27.28;42.36;99730.09;4399619;32;34101;-85
2022/07/05 02:21:59;;;;;;;3.90;1.50;;;;;;;27.23;42.94;99727.91;4389756;32;33511;-85
2022/07/05 02:24:29;;;;;;;1.52;0.68;;;;;;;26.85;44.17;99716.00;4389718;32;33447;-85
2022/07/05 02:26:59;;;;;;;3.12;1.83;;;;;;;27.00;43.67;99705.28;4400188;32;32798;-85
2022/07/05 02:29:27;;;;;;;1.48;1.10;;;;;;;27.37;42.36;99706.50;4406523;32;32641;-85
2022/07/05 02:31:56;;;;;;;1.30;1.20;;;;;;;27.04;42.42;99714.75;4401658;32;33673;-84
2022/07/05 02:34:26;;;;;;;2.15;1.10;;;;;;;26.90;42.99;99715.47;4392972;32;33772;-85
2022/07/05 02:36:58;;;;;;;1.42;1.33;;;;;;;26.69;43.84;99716.91;4402037;32;33617;-84
2022/07/05 02:39:27;;;;;;;3.57;1.30;;;;;;;26.75;43.66;99718.06;4400891;32;33299;-84
2022/07/05 02:41:57;;;;;;;1.17;1.08;;;;;;;26.94;42.79;99733.09;4419071;32;32783;-84
2022/07/05 02:44:27;;;;;;;0.93;0.90;;;;;;;26.90;43.09;99729.03;4410600;32;35450;-84
2022/07/05 02:46:57;;;;;;;3.83;0.95;;;;;;;26.73;44.05;99731.78;4402193;32;33700;-84
2022/07/05 02:49:27;;;;;;;2.85;1.20;;;;;;;26.95;43.21;99729.34;4400167;32;32700;-84
2022/07/05 02:51:56;;;;;;;1.58;0.98;;;;;;;27.19;42.28;99725.72;4400023;32;32418;-84
2022/07/05 02:54:24;;;;;;;1.30;1.20;;;;;;;27.08;42.41;99728.81;4406226;32;33618;-84
2022/07/05 02:56:53;;;;;;;1.75;1.02;;;;;;;27.09;43.02;99725.94;4407152;32;32982;-84
2022/07/05 02:59:21;;;;;;;1.80;1.20;;;;;;;26.76;44.92;99717.88;4419637;32;32268;-84
2022/07/05 03:01:51;;;;;;;1.50;1.00;;;;;;;26.88;44.11;99717.53;4382686;32;33879;-84
2022/07/05 03:04:19;;;;;;;6.72;1.83;;;;;;;27.21;42.85;99715.56;4388380;32;33963;-84
2022/07/05 03:06:47;;;;;;;2.20;1.10;;;;;;;27.01;43.92;99707.84;4384867;32;34074;-84
2022/07/05 03:09:19;;;;;;;5.18;1.60;;;;;;;27.04;44.07;99717.47;4406072;32;33770;-84
2022/07/05 03:11:48;;;;;;;4.28;1.15;;;;;;;26.87;45.17;99716.69;4420568;32;33188;-84
2022/07/05 03:14:16;;;;;;;1.30;1.20;;;;;;;26.97;44.81;99725.47;4389386;32;35831;-84
2022/07/05 03:16:45;;;;;;;2.50;1.30;;;;;;;26.93;45.21;99715.12;4389143;32;34068;-84
2022/07/05 03:19:13;;;;;;;2.20;1.02;;;;;;;27.15;44.57;99711.69;4381524;32;32344;-84
2022/07/05 03:21:42;;;;;;;1.70;1.25;;;;;;;27.16;44.59;99718.81;4418033;32;32809;-84
2022/07/05 03:24:11;;;;;;;3.50;1.25;;;;;;;27.07;45.29;99706.28;4388674;32;34159;-84
2022/07/05 03:26:39;;;;;;;4.80;1.45;;;;;;;27.10;45.27;99708.66;4398814;32;33529;-83
2022/07/05 03:29:06;;;;;;;1.95;1.70;;;;;;;26.94;46.38;99717.66;4388833;32;32872;-84
2022/07/05 03:31:35;;;;;;;1.00;1.00;;;;;;;27.04;45.46;99723.72;4412432;32;32994;-83
2022/07/05 03:34:03;;;;;;;1.48;1.33;;;;;;;27.21;45.17;99729.13;4401064;32;33943;-84
2022/07/05 03:36:32;;;;;;;3.25;1.85;;;;;;;27.11;45.52;99740.19;4399666;32;33864;-84
2022/07/05 03:39:04;;;;;;;1.52;1.30;;;;;;;26.95;46.20;99746.44;4401795;32;34208;-87
2022/07/05 03:41:34;;;;;;;1.70;1.48;;;;;;;26.85;46.53;99750.37;4388992;32;33166;-87
2022/07/05 03:44:03;;;;;;;4.07;1.25;;;;;;;26.48;47.65;99744.50;4386745;32;33244;-85
2022/07/05 03:46:33;;;;;;;3.08;1.20;;;;;;;26.57;47.64;99753.47;4402059;32;33699;-85
2022/07/05 03:49:01;;;;;;;4.50;1.40;;;;;;;26.62;48.11;99759.22;4388666;32;34523;-85
2022/07/05 03:51:29;;;;;;;3.10;1.40;;;;;;;26.38;48.60;99760.03;4399613;32;33930;-84
2022/07/05 03:53:57;;;;;;;1.83;1.10;;;;;;;26.79;47.34;99752.75;4400379;32;34765;-83
2022/07/05 03:56:25;;;;;;;4.50;1.12;;;;;;;26.75;47.77;99770.38;4399034;32;33040;-85
2022/07/05 03:58:54;;;;;;;2.17;1.23;;;;;;;26.80;47.30;99762.56;4413864;32;33022;-84
2022/07/05 04:01:23;;;;;;;1.45;1.35;;;;;;;26.62;48.04;99772.75;4386372;32;35357;-84
2022/07/05 04:03:53;;;;;;;2.75;1.50;;;;;;;26.68;47.69;99780.22;4400103;32;34038;-85
2022/07/05 04:06:21;;;;;;;1.90;1.80;;;;;;;26.30;49.05;99782.56;4382560;32;33288;-85
2022/07/05 04:08:49;;;;;;;2.55;1.65;;;;;;;26.40;48.75;99779.69;4410982;32;32974;-86
2022/07/05 04:11:18;;;;;;;1.52;1.30;;;;;;;26.49;48.26;99783.25;4388600;32;33135;-85
2022/07/05 04:13:47;;;;;;;2.70;1.10;;;;;;;26.55;48.07;99783.44;4382132;32;34084;-85
2022/07/05 04:16:16;;;;;;;1.30;1.20;;;;;;;26.72;47.56;99778.81;4388437;32;34187;-85
2022/07/05 04:18:44;;;;;;;1.15;1.08;;;;;;;26.87;47.25;99780.84;4399068;32;32956;-85
2022/07/05 04:21:12;;;;;;;2.12;1.20;;;;;;;26.76;48.15;99774.75;4387345;32;34489;-85
2022/07/05 04:23:41;;;;;;;1.83;1.40;;;;;;;26.90;46.91;99769.66;4401247;32;33952;-85
2022/07/05 04:26:09;;;;;;;1.65;1.42;;;;;;;26.76;47.72;99773.91;4381361;32;34464;-85
2022/07/05 04:28:38;;;;;;;3.08;1.40;;;;;;;26.96;46.86;99771.66;4398371;32;33023;-85
2022/07/05 04:31:06;;;;;;;5.55;1.17;;;;;;;27.29;46.06;99769.75;4396508;32;33436;-84
2022/07/05 04:33:35;;;;;;;2.83;1.40;;;;;;;27.05;47.96;99770.63;4419578;32;32674;-84
2022/07/05 04:36:06;;;;;;;1.65;1.52;;;;;;;27.15;46.90;99763.19;4400972;32;34128;-84
2022/07/05 04:38:37;;;;;;;1.35;1.05;;;;;;;27.21;45.55;99759.78;4403694;32;32079;-84
2022/07/05 04:41:05;;;;;;;2.78;1.40;;;;;;;26.60;47.63;99747.72;4397973;32;33924;-84
2022/07/05 04:43:34;;;;;;;1.48;1.27;;;;;;;26.88;46.57;99745.47;4397437;32;33925;-84
2022/07/05 04:46:07;;;;;;;2.72;1.23;;;;;;;27.02;45.97;99757.44;4400155;32;34199;-84
2022/07/05 04:48:35;;;;;;;3.72;1.20;;;;;;;27.08;45.91;99762.19;4387399;32;33471;-85
2022/07/05 04:51:03;;;;;;;2.87;1.10;;;;;;;26.88;46.99;99748.19;4414824;32;33473;-86
2022/07/05 04:53:32;;;;;;;1.10;1.00;;;;;;;27.01;46.18;99761.16;4386855;32;34665;-85
2022/07/05 04:56:01;;;;;;;3.03;1.33;;;;;;;26.80;47.12;99743.59;4381921;32;33517;-85
2022/07/05 04:58:29;;;;;;;1.98;1.40;;;;;;;27.07;45.90;99749.66;4401522;32;33672;-85
2022/07/05 05:00:57;;;;;;;1.90;1.25;;;;;;;27.01;45.88;99740.34;4397528;32;34282;-84
2022/07/05 05:03:25;;;;;;;2.87;1.42;;;;;;;27.01;45.62;99744.91;4406056;32;34521;-84
2022/07/05 05:05:53;;;;;;;1.55;1.30;;;;;;;26.77;46.80;99740.38;4388606;32;33219;-85
2022/07/05 05:08:22;;;;;;;1.23;1.12;;;;;;;26.96;46.14;99736.44;4399992;32;33425;-85
2022/07/05 05:10:50;;;;;;;2.40;1.27;;;;;;;27.03;45.95;99737.47;4386801;32;34051;-84
2022/07/05 05:13:19;;;;;;;2.75;1.52;;;;;;;27.40;44.72;99736.00;4397434;32;33071;-84
2022/07/05 05:15:49;;;;;;;1.52;1.08;;;;;;;27.41;44.79;99734.97;4392544;32;32664;-84
2022/07/05 05:18:24;;;;;;;1.58;1.17;;;;;;;27.11;45.00;99733.87;4401124;32;32773;-84
2022/07/05 05:20:55;;;;;;;2.83;1.00;;;;;;;27.09;44.82;99728.66;4387383;32;33469;-84
2022/07/05 05:23:23;;;;;;;1.10;1.00;;;;;;;26.97;45.33;99733.59;4409830;32;34469;-84
2022/07/05 05:25:52;;;;;;;1.65;1.23;;;;;;;27.31;44.32;99722.47;4398073;32;34440;-84
2022/07/05 05:28:21;;;;;;;0.88;0.88;;;;;;;27.25;44.51;99731.31;4399107;32;33105;-84
2022/07/05 05:30:50;;;;;;;3.45;0.80;;;;;;;27.54;43.15;99735.25;4378137;32;33585;-84
2022/07/05 05:33:21;;;;;;;1.37;1.00;;;;;;;27.27;43.53;99740.09;4410671;32;33685;-84
2022/07/05 05:35:55;;;;;;;3.05;1.33;;;;;;;27.59;43.46;99734.72;4382232;32;33249;-85
2022/07/05 05:38:23;;;;;;;2.37;1.08;;;;;;;27.63;43.27;99745.03;4393403;32;33729;-84
2022/07/05 05:40:54;;;;;;;2.97;1.45;;;;;;;27.36;43.98;99751.75;4398463;32;33897;-85
2022/07/05 05:43:24;;;;;;;1.95;0.85;;;;;;;27.39;43.88;99745.97;4396128;32;33523;-84
2022/07/05 05:45:58;;;;;;;2.42;1.17;;;;;;;27.50;43.68;99744.75;4381650;32;32905;-84
2022/07/05 05:48:29;;;;;;;6.35;1.10;;;;;;;27.48;43.62;99749.50;4396589;32;33027;-84
2022/07/05 05:50:58;;;;;;;3.37;1.00;;;;;;;27.46;43.59;99749.69;4398989;32;32938;-84
2022/07/05 05:53:27;;;;;;;3.12;1.20;;;;;;;27.50;43.22;99750.16;4410812;32;34785;-84
2022/07/05 05:55:57;;;;;;;1.27;0.82;;;;;;;27.22;43.98;99764.19;4387413;32;33169;-84
2022/07/05 05:58:25;;;;;;;2.55;0.95;;;;;;;27.07;44.05;99760.47;4395475;32;31963;-86
2022/07/05 06:00:54;;;;;;;1.83;1.15;;;;;;;27.30;43.90;99768.75;4385149;32;34670;-82
2022/07/05 06:03:25;;;;;;;2.15;1.15;;;;;;;27.24;44.02;99775.69;4406788;32;34733;-82
2022/07/05 06:05:54;;;;;;;6.72;1.17;;;;;;;27.25;44.04;99781.94;4406147;32;32833;-81
2022/07/05 06:08:23;;;;;;;2.15;1.33;;;;;;;27.35;44.01;99776.31;4396283;32;32699;-81
2022/07/05 06:10:51;;;;;;;2.55;0.90;;;;;;;27.31;44.14;99773.97;4399144;32;32647;-82
2022/07/05 06:13:36;;;;;;;1.85;1.17;;;;;;;27.16;44.64;99777.59;4390172;32;33435;-82
2022/07/05 06:16:06;;;;;;;2.65;1.30;;;;;;;27.17;45.00;99771.16;4385281;32;33247;-82
2022/07/05 06:18:35;;;;;;;1.48;1.20;;;;;;;27.46;43.88;99771.38;4395836;32;33055;-82
2022/07/05 06:21:04;;;;;;;3.75;1.42;;;;;;;27.25;45.07;99774.69;4400949;32;33530;-82
2022/07/05 06:23:34;;;;;;;1.62;1.20;;;;;;;27.53;44.59;99772.34;4406861;32;33434;-81
2022/07/05 06:26:04;;;;;;;1.50;0.85;;;;;;;27.56;44.12;99772.00;4409852;32;33899;-81
2022/07/05 06:28:33;;;;;;;0.93;0.80;;;;;;;27.50;44.42;99777.28;4386349;32;33681;-82
2022/07/05 06:31:00;;;;;;;3.25;1.30;;;;;;;27.39;44.77;99766.81;4384030;32;33070;-81
2022/07/05 06:33:38;;;;;;;6.55;1.25;;;;;;;27.35;45.20;99762.75;4393540;32;34024;-82
2022/07/05 06:36:12;;;;;;;0.90;0.80;;;;;;;27.18;45.14;99767.41;4380039;32;33230;-81
2022/07/05 06:38:48;;;;;;;1.10;1.00;;;;;;;27.18;45.35;99762.00;4386416;32;33673;-82
2022/07/05 06:41:16;;;;;;;1.27;0.93;;;;;;;27.17;45.25;99774.72;4401776;32;34158;-82
2022/07/05 06:43:51;;;;;;;1.05;0.98;;;;;;;27.38;44.40;99767.84;4399753;32;32766;-81
2022/07/05 06:46:27;;;;;;;1.30;0.75;;;;;;;27.17;45.43;99761.16;4397530;32;35517;-83
2022/07/05 06:48:58;;;;;;;1.75;1.00;;;;;;;27.44;44.55;99767.13;4387613;32;32675;-81
2022/07/05 06:51:26;;;;;;;0.62;0.62;;;;;;;27.76;43.41;99755.31;4406167;32;34046;-82
2022/07/05 06:53:56;;;;;;;1.52;0.85;;;;;;;27.68;43.44;99752.59;4385462;32;31205;-82
2022/07/05 06:56:35;;;;;;;1.05;0.75;;;;;;;27.45;45.40;99744.44;4411321;32;33924;-83
2022/07/05 06:59:23;;;;;;;2.67;1.20;;;;;;;27.44;44.66;99750.84;4409558;32;33939;-82
2022/07/05 07:02:14;;;;;;;3.08;1.20;;;;;;;27.72;43.98;99740.41;4396854;32;33306;-82
2022/07/05 07:04:52;;;;;;;2.15;0.90;;;;;;;28.23;42.85;99736.13;4408901;32;32942;-83
2022/07/05 07:10:28;;;;;;;2.40;1.00;;;;;;;28.45;42.42;99753.47;4392158;32;33458;-83
2022/07/05 07:12:59;;;;;;;2.25;0.90;;;;;;;28.76;42.24;99753.31;4387005;32;32498;-84
2022/07/05 07:15:29;;;;;;;1.00;0.90;;;;;;;28.78;42.35;99751.28;4395424;32;33047;-83
2022/07/05 07:17:57;;;;;;;1.42;1.00;;;;;;;28.84;41.66;99738.81;4396991;32;34248;-82
2022/07/05 07:20:27;;;;;;;3.40;0.90;;;;;;;28.54;42.63;99748.81;4407461;32;32731;-82
2022/07/05 07:22:55;;;;;;;1.30;0.90;;;;;;;28.83;41.26;99748.84;4394111;32;34407;-82
2022/07/05 07:25:23;;;;;;;1.52;1.10;;;;;;;28.49;41.62;99756.66;4402241;32;34129;-83
2022/07/05 07:27:59;;;;;;;1.17;0.82;;;;;;;28.57;41.39;99751.13;4395615;32;32220;-82
2022/07/05 07:30:28;;;;;;;2.65;1.02;;;;;;;28.49;41.36;99754.78;4382121;32;32954;-83
2022/07/05 07:32:57;;;;;;;1.25;1.15;;;;;;;28.55;41.12;99758.63;4401338;32;33928;-83
2022/07/05 07:35:25;;;;;;;3.08;0.70;;;;;;;28.52;41.09;99754.41;4400341;32;32716;-83
2022/07/05 07:37:54;;;;;;;4.03;0.73;;;;;;;27.85;42.90;99747.97;4384821;32;33495;-84
2022/07/05 07:40:22;;;;;;;1.25;0.82;;;;;;;27.87;43.70;99751.31;4399172;32;33014;-83
2022/07/05 07:42:51;;;;;;;4.35;0.65;;;;;;;27.84;43.46;99747.13;4396320;32;34379;-83
2022/07/05 07:45:21;;;;;;;1.33;0.98;;;;;;;28.08;42.87;99751.53;4419126;32;33640;-83
2022/07/05 07:47:50;;;;;;;1.92;0.90;;;;;;;27.72;44.02;99753.97;4388261;32;33133;-83
2022/07/05 07:50:18;;;;;;;6.90;1.23;;;;;;;28.25;43.35;99753.09;4407148;32;32673;-83
2022/07/05 07:52:47;;;;;;;1.45;0.77;;;;;;;27.73;43.85;99751.09;4380891;32;33657;-83
2022/07/05 07:55:16;;;;;;;3.42;1.23;;;;;;;27.59;44.92;99756.41;4400333;32;32847;-82
2022/07/05 07:57:45;;;;;;;1.42;0.70;;;;;;;28.06;44.25;99750.88;4385601;32;34735;-83
2022/07/05 08:00:14;;;;;;;1.17;1.00;;;;;;;28.05;43.90;99749.16;4388895;32;32992;-83
2022/07/05 08:02:44;;;;;;;1.45;0.93;;;;;;;28.15;43.73;99755.19;4374559;32;32608;-83
2022/07/05 08:05:14;;;;;;;4.07;0.95;;;;;;;28.14;43.88;99750.78;4402032;32;33312;-83
2022/07/05 08:07:44;;;;;;;2.75;1.10;;;;;;;28.09;44.13;99750.50;4395371;32;34061;-83
2022/07/05 08:10:17;;;;;;;0.95;0.85;;;;;;;27.90;44.90;99761.84;4399462;32;33320;-83
2022/07/05 08:12:46;;;;;;;1.25;1.10;;;;;;;27.66;45.74;99755.50;4413501;32;32766;-83
2022/07/05 08:15:16;;;;;;;1.02;0.90;;;;;;;27.84;45.05;99749.84;4399100;32;32970;-83
2022/07/05 08:21:30;;;;;;;4.50;1.20;;;;;;;28.13;44.49;99757.25;4399880;32;34676;-83
2022/07/05 08:23:25;;;;;;;2.80;0.77;;;;;;;27.68;45.73;99758.88;4397227;32;33233;-83
2022/07/05 08:28:35;;;;;;;3.55;1.30;;;;;;;27.33;46.68;99772.94;4395059;32;34546;-83
2022/07/05 08:31:31;;;;;;;2.95;1.30;;;;;;;27.72;46.47;99773.78;4398066;32;33145;-83
2022/07/05 08:34:01;;;;;;;;;;;;;;;27.84;45.84;99778.84;4406891;32;33452;-83
2022/07/05 08:36:43;;;;;;;4.43;1.45;;;;;;;27.71;46.17;99766.69;4394876;32;34952;-83
2022/07/05 08:41:55;;;;;;;2.92;1.30;;;;;;;28.01;46.04;99777.69;4387652;32;33249;-83
2022/07/05 08:44:29;;;;;;;3.80;0.90;;;;;;;28.07;45.35;99774.28;4393851;32;33894;-84
2022/07/05 08:46:58;;;;;;;1.45;0.70;;;;;;;28.02;44.63;99771.25;4398112;32;33978;-83
2022/07/05 08:49:27;;;;;;;4.65;1.35;;;;;;;28.01;45.04;99774.97;4388734;32;33362;-83
2022/07/05 08:51:59;;;;;;;7.47;1.42;;;;;;;28.31;43.65;99771.38;4400221;32;32838;-83
2022/07/05 08:54:28;;;;;;;1.23;1.15;;;;;;;28.16;44.43;99773.19;4395191;32;33205;-84
2022/07/05 08:57:00;;;;;;;2.42;0.90;;;;;;;27.85;45.26;99780.53;4398279;32;34021;-83
2022/07/05 08:59:36;;;;;;;1.15;0.77;;;;;;;27.61;45.61;99787.75;4388182;32;34399;-83
2022/07/05 09:02:13;;;;;;;3.12;1.77;;;;;;;27.79;45.02;99793.78;4417856;32;33408;-83
2022/07/05 09:04:46;;;;;;;2.85;1.05;;;;;;;27.51;45.74;99789.81;4401924;32;34294;-83
2022/07/05 09:07:22;;;;;;;5.00;1.33;;;;;;;27.34;46.93;99785.47;4390416;32;33730;-83
2022/07/05 09:09:51;;;;;;;1.98;1.20;;;;;;;27.19;47.41;99797.06;4394477;32;33898;-83
2022/07/05 09:12:22;;;;;;;1.90;1.20;;;;;;;27.06;48.09;99785.88;4388199;32;31988;-83
2022/07/05 09:14:55;;;;;;;3.83;1.55;;;;;;;26.81;48.66;99793.22;4399128;32;33201;-84
2022/07/05 09:17:32;;;;;;;;;;;;;;;26.83;48.88;99784.94;4387189;32;33293;-86
2022/07/05 09:20:14;;;;;;;8.18;1.30;;;;;;;26.53;49.44;99776.47;4412328;32;34240;-83
2022/07/05 09:22:56;;;;;;;1.98;1.12;;;;;;;26.40;49.78;99776.97;4389353;32;33367;-85
2022/07/05 09:25:29;;;;;;;2.95;1.62;;;;;;;25.97;50.89;99783.50;4405859;32;33936;-83
2022/07/05 09:28:06;;;;;;;1.73;1.30;;;;;;;25.96;51.33;99776.41;4400154;32;33697;-83
2022/07/05 09:30:44;;;;;;;4.20;1.37;;;;;;;26.02;51.43;99781.19;4373864;32;32876;-83
2022/07/05 09:33:14;;;;;;;4.70;1.40;;;;;;;26.25;51.49;99781.34;4412062;32;33906;-83
2022/07/05 09:36:00;;;;;;;1.27;1.17;;;;;;;26.42;51.03;99796.59;4405611;32;32184;-83
2022/07/05 09:38:33;;;;;;;3.37;1.50;;;;;;;26.46;50.64;99789.03;4404010;32;33053;-83
2022/07/05 09:41:03;;;;;;;1.30;1.20;;;;;;;26.38;51.09;99780.84;4411477;32;32836;-83
2022/07/05 09:43:32;;;;;;;5.35;1.50;;;;;;;26.36;51.06;99785.63;4398111;32;32679;-83
2022/07/05 09:46:04;;;;;;;3.05;1.65;;;;;;;26.14;52.02;99776.28;4381460;32;33669;-84
2022/07/05 09:48:34;;;;;;;3.08;1.10;;;;;;;26.26;51.26;99792.03;4374741;32;32926;-83
2022/07/05 09:51:13;;;;;;;2.80;1.02;;;;;;;25.97;51.82;99805.16;4398764;32;33727;-84
2022/07/05 09:54:03;;;;;;;7.18;1.60;;;;;;;25.84;52.46;99816.47;4389234;32;33056;-82
2022/07/05 09:56:47;;;;;;;3.22;1.37;;;;;;;25.80;55.31;99847.56;4399117;32;33084;-82
2022/07/05 09:59:26;;;;;;;;;;;;;;;25.58;57.29;99840.84;4398556;32;34681;-81
2022/07/05 10:01:56;;;;;;;11.23;2.78;;;;;;;25.48;59.74;99832.03;4402049;32;35199;-81
2022/07/05 10:04:25;;;;;;;7.68;3.40;;;;;;;24.59;63.24;99845.75;4415100;32;34230;-82
2022/07/05 10:06:56;;;;;;;6.18;2.00;;;;;;;24.33;64.80;99856.47;4380440;32;33675;-81
2022/07/05 10:09:25;;;;;;;6.62;2.20;;;;;;;24.26;65.37;99869.72;4404090;32;33954;-81
2022/07/05 10:11:53;;;;;;;2.25;1.90;;;;;;;24.41;64.32;99862.81;4412903;32;34204;-81
2022/07/05 10:17:05;;;;;;;7.05;2.50;;;;;;;23.94;66.39;99857.59;4418037;32;33965;-81
2022/07/05 10:19:38;;;;;;;4.12;1.90;;;;;;;24.16;65.61;99858.97;4389206;32;33215;-82
2022/07/05 10:22:11;;;;;;;4.82;2.17;;;;;;;24.21;65.10;99861.22;4411099;32;32702;-81
2022/07/05 10:24:48;;;;;;;2.28;1.90;;;;;;;24.13;65.06;99869.25;4398701;32;33026;-81
2022/07/05 10:27:28;;;;;;;2.15;2.00;;;;;;;23.94;66.61;99881.00;4411696;32;33690;-81
2022/07/05 10:29:57;;;;;;;2.05;1.85;;;;;;;23.94;65.61;99883.72;4399482;32;34707;-82
2022/07/05 10:32:31;;;;;;;3.87;2.50;;;;;;;23.56;67.49;99872.09;4394599;32;35082;-81
2022/07/05 10:35:03;;;;;;;7.85;3.00;;;;;;;23.68;67.20;99864.66;4390971;32;33547;-82
2022/07/05 10:37:35;;;;;;;5.22;2.30;;;;;;;23.50;68.34;99875.38;4394566;32;34977;-82
2022/07/05 10:40:10;;;;;;;4.25;2.85;;;;;;;23.64;66.65;99883.00;4395758;32;34602;-82
2022/07/05 10:42:41;;;;;;;2.65;2.37;;;;;;;23.65;68.04;99890.09;4401117;32;34500;-82
2022/07/05 10:45:32;;;;;;;5.80;2.75;;;;;;;23.58;68.82;99888.09;4385791;32;33209;-84
2022/07/05 10:48:27;;;;;;;5.43;2.28;;;;;;;23.73;67.71;99884.78;4395481;32;33364;-82
2022/07/05 10:50:58;;;;;;;3.20;2.90;;;;;;;23.66;67.21;99890.94;4398220;32;34362;-82
2022/07/05 10:53:37;;;;;;;;;;;;;;;23.86;66.61;99891.69;4398272;32;33620;-82
2022/07/05 10:56:06;;;;;;;4.32;3.05;;;;;;;23.84;67.16;99896.41;4410717;32;32989;-82
2022/07/05 11:01:19;;;;;;;4.57;2.67;;;;;;;23.59;68.28;99896.03;4400653;32;33057;-82
2022/07/05 11:04:00;;;;;;;3.60;3.20;;;;;;;23.59;68.02;99912.19;4412892;32;33861;-82
2022/07/05 11:06:49;;;;;;;6.22;3.05;;;;;;;23.69;67.47;99907.66;4406266;32;32931;-83
2022/07/05 11:09:19;;;;;;;3.45;3.12;;;;;;;23.73;67.57;99903.66;4401554;32;33062;-85
2022/07/05 11:14:50;;;;;;;;;;;;;;;23.79;67.28;99904.09;4412622;32;33469;-86
2022/07/05 11:17:27;;;;;;;3.50;3.20;;;;;;;23.72;69.27;99922.69;4401414;32;33687;-86
2022/07/05 11:20:26;;;;;;;3.25;3.03;;;;;;;23.98;67.55;99920.16;4412249;32;33534;-84
2022/07/05 11:23:09;;;;;;;7.32;3.28;;;;;;;24.28;65.72;99913.59;4386144;32;32745;-82
2022/07/05 11:25:40;;;;;;;3.72;3.08;;;;;;;24.10;65.36;99912.69;4397532;32;32472;-81
2022/07/05 11:28:19;;;;;;;3.30;2.93;;;;;;;24.07;65.92;99895.00;4399775;32;32697;-81
2022/07/05 11:30:56;;;;;;;5.25;2.87;;;;;;;24.15;65.93;99881.56;4400030;32;34410;-82
2022/07/05 11:33:45;;;;;;;4.50;2.40;;;;;;;24.08;65.67;99860.78;4409113;32;32169;-82
2022/07/05 11:36:27;;;;;;;6.32;2.37;;;;;;;23.75;67.84;99863.09;4398004;32;33018;-82
2022/07/05 11:39:16;;;;;;;4.55;2.20;;;;;;;23.75;68.53;99868.47;4395809;32;32811;-82
2022/07/05 11:41:49;;;;;;;3.42;2.33;;;;;;;23.64;69.22;99872.22;4403224;32;33480;-82
2022/07/05 11:44:23;;;;;;;6.50;2.40;;;;;;;23.79;67.44;99869.88;4386145;32;33186;-82
2022/07/05 11:47:14;;;;;;;6.45;2.80;;;;;;;23.63;68.69;99864.25;4392560;32;31819;-81
2022/07/05 11:49:55;;;;;;;2.65;2.20;;;;;;;23.58;69.14;99872.78;4409183;32;32564;-82
2022/07/05 11:52:35;;;;;;;4.72;2.37;;;;;;;23.76;68.74;99887.19;4399951;32;32077;-82
2022/07/05 11:55:11;;;;;;;3.75;2.70;;;;;;;24.02;67.94;99864.91;4398661;32;31509;-81
2022/07/05 11:57:53;;;;;;;5.37;2.80;;;;;;;24.12;67.87;99863.00;4399718;32;34616;-82
2022/07/05 12:00:40;;;;;;;4.97;2.62;;;;;;;24.01;68.26;99847.03;4397379;32;33686;-82
2022/07/05 12:03:13;;;;;;;4.35;2.90;;;;;;;24.52;65.63;99840.13;4396570;32;34653;-81
2022/07/05 12:05:42;;;;;;;3.42;3.12;;;;;;;24.19;67.24;99837.09;4384546;32;33450;-82
2022/07/05 12:08:19;;;;;;;3.60;2.83;;;;;;;24.24;67.36;99842.88;4409839;32;33478;-81
2022/07/05 12:13:48;;;;;;;5.53;3.15;;;;;;;24.58;65.35;99834.09;4411461;32;33526;-82
2022/07/05 12:16:23;;;;;;;3.92;2.85;;;;;;;24.47;66.52;99832.50;4410638;32;34036;-82
2022/07/05 12:19:01;;;;;;;2.80;2.60;;;;;;;24.55;65.71;99839.84;4413812;32;33153;-82